메인 페이지
METAR-TAF:

METAR-TAF

공항 :

St. Augustine Airport

세인트오거스틴, 플로리다, 미국

위도: 29-57-33N, 경도: 081-20-23W, 고도: 3m

현재 날씨관측

예보는 52분 전, 21:56시(UTC)에 발표되었습니다.
서남서14kt, 순간 최대 풍속 26kt
온도 28°C
습도 58%
기압 1004 hPa
시정: 16.1km
고도 4700ft 상공 구름 조금
고도 10000ft 상공 구름 많음

METAR: KSGJ 312156Z 24014G26KT 10SM FEW047 BKN100 28/19 A2966 RMK AO2 PK WND 24029/2144 SLP044 T02780189 $

시각: 18:48 (22:48 UTC)

예보

예보는 2 시간 41분 전, 20:07시(UTC)에 발표되었습니다.
예보 대상 시간: 31일 20시부터 01일 18시까지 (UTC)
남서15kt, 순간 최대 풍속 25kt
시정: 10km
고도 2500ft 상공 구름 보통
고도 5000ft 상공 구름 많음
고도 10000ft 상공 구름 많음
시계 내 소나기
일시적
01일 01시부터 01일 03시까지 (UTC)
여러 방향의 바람 20kt, 순간 최대 풍속 30kt
시정: 8.0km
고도 3000ft 상공 구름 많음, 적란운.
뇌우, 비
01일 0500시부터 (UTC)
서북서14kt
시정: 10km
고도 25000ft 상공 구름 보통
01일 1200시부터 (UTC)
북서11kt
시정: 10km
맑음

TAF: KSGJ 312007Z 3120/0118 23015G25KT P6SM VCSH SCT025 BKN050 BKN100 TEMPO 0101/0103 VRB20G30KT 5SM TSRA BKN030CB FM010500 30014KT P6SM SCT250 FM011200 32011KT P6SM SKC

4,000개 이상의 공항 관측 자료 및 예보 (METAR 및 TAF 보고).

지도상에서 검색 가능한 기상관측소가 노란 점과 빨간 점으로 표시되어 있습니다.

기상관측소 명을 보려면 표시 위로 마우스를 이동하세요.

날씨 관측과 예보를 보려면 클릭하세요.

지도 변경 : 확대하려면 엑스 표시가 있는 녹색 버튼, 축소하려면 빼기 표시가 있는 녹색 버튼, 다음 페이지의 지도를 보려면 녹색 화살표를 클릭하세요.


METAR-TAF: